createdAt,value
2023-01-15T00:02:16.857Z,98658.13
2023-01-15T00:04:44.249Z,98655.44
2023-01-15T00:07:11.258Z,98648.44
2023-01-15T00:09:38.442Z,98652.78
2023-01-15T00:12:05.666Z,98655.34
2023-01-15T00:14:32.893Z,98642.25
2023-01-15T00:16:59.800Z,98637.78
2023-01-15T00:19:27.037Z,98645.69
2023-01-15T00:21:54.363Z,98653.53
2023-01-15T00:24:40.583Z,98656.97
2023-01-15T00:27:29.293Z,98643.09
2023-01-15T00:29:56.373Z,98625.78
2023-01-15T00:32:23.307Z,98613.47
2023-01-15T00:34:50.464Z,98641.19
2023-01-15T00:37:17.434Z,98624.59
2023-01-15T00:39:44.716Z,98618.47
2023-01-15T00:42:12.486Z,98634.78
2023-01-15T00:44:39.726Z,98604.38
2023-01-15T00:47:09.024Z,98601.81
2023-01-15T00:49:36.257Z,98613.94
2023-01-15T00:52:03.182Z,98613.03
2023-01-15T00:54:30.465Z,98600.88
2023-01-15T00:56:57.416Z,98600.00
2023-01-15T00:59:24.787Z,98604.34
2023-01-15T01:01:52.030Z,98596.41
2023-01-15T01:04:19.521Z,98595.56
2023-01-15T01:06:46.451Z,98589.53
2023-01-15T01:09:15.054Z,98599.94
2023-01-15T01:11:42.236Z,98567.69
2023-01-15T01:14:10.807Z,98579.94
2023-01-15T01:16:42.181Z,98576.56
2023-01-15T01:19:12.902Z,98564.41
2023-01-15T01:21:41.659Z,98569.63
2023-01-15T01:24:11.615Z,98571.28
2023-01-15T01:26:39.252Z,98567.69
2023-01-15T01:29:06.581Z,98563.31
2023-01-15T01:31:33.686Z,98554.69
2023-01-15T01:34:00.924Z,98562.34
2023-01-15T01:36:31.561Z,98568.44
2023-01-15T01:38:59.482Z,98563.28
2023-01-15T01:41:27.155Z,98557.28
2023-01-15T01:44:00.210Z,98554.66
2023-01-15T01:46:29.798Z,98550.31
2023-01-15T01:49:09.597Z,98550.38
2023-01-15T01:51:43.423Z,98554.66
2023-01-15T01:54:14.222Z,98542.41
2023-01-15T01:56:42.007Z,98532.81
2023-01-15T01:59:09.780Z,98528.31
2023-01-15T02:01:36.746Z,98522.31
2023-01-15T02:04:07.887Z,98513.63
2023-01-15T02:06:35.997Z,98528.34
2023-01-15T02:09:04.249Z,98517.91
2023-01-15T02:11:33.095Z,98512.56
2023-01-15T02:14:09.277Z,98516.13
2023-01-15T02:16:53.962Z,98509.16
2023-01-15T02:19:50.855Z,98501.38
2023-01-15T02:22:42.740Z,98504.03
2023-01-15T02:25:18.760Z,98496.22
2023-01-15T02:27:55.632Z,98503.28
2023-01-15T02:30:39.856Z,98501.53
2023-01-15T02:33:26.745Z,98484.06
2023-01-15T02:36:01.084Z,98485.75
2023-01-15T02:38:35.975Z,98479.56
2023-01-15T02:41:05.618Z,98510.91
2023-01-15T02:43:38.785Z,98473.47
2023-01-15T02:46:07.955Z,98472.56
2023-01-15T02:48:38.879Z,98455.91
2023-01-15T02:51:12.575Z,98466.34
2023-01-15T02:53:41.828Z,98475.00
2023-01-15T02:56:19.205Z,98457.41
2023-01-15T02:58:48.263Z,98463.19
2023-01-15T03:01:20.423Z,98435.28
2023-01-15T03:03:55.188Z,98435.34
2023-01-15T03:06:34.028Z,98439.84
2023-01-15T03:11:38.165Z,98447.72
2023-01-15T03:14:33.115Z,98438.19
2023-01-15T03:17:10.295Z,98409.41
2023-01-15T03:19:39.887Z,98417.16
2023-01-15T03:22:16.168Z,98417.16
2023-01-15T03:24:43.142Z,98416.00
2023-01-15T03:27:11.247Z,98409.91
2023-01-15T03:29:48.111Z,98423.94
2023-01-15T03:32:17.800Z,98417.91
2023-01-15T03:34:49.104Z,98423.88
2023-01-15T03:37:19.670Z,98419.53
2023-01-15T03:39:47.732Z,98443.78
2023-01-15T03:42:29.953Z,98435.72
2023-01-15T03:45:02.619Z,98427.88
2023-01-15T03:47:34.414Z,98420.06
2023-01-15T03:50:19.875Z,98422.56
2023-01-15T03:53:08.747Z,98412.19
2023-01-15T03:55:47.457Z,98404.38
2023-01-15T03:58:18.846Z,98407.94
2023-01-15T04:00:52.557Z,98394.88
2023-01-15T04:03:22.980Z,98381.69
2023-01-15T04:05:52.706Z,98382.31
2023-01-15T04:08:20.851Z,98356.06
2023-01-15T04:10:55.828Z,98362.84
2023-01-15T04:13:23.429Z,98371.59
2023-01-15T04:15:51.214Z,98352.44
2023-01-15T04:18:19.345Z,98378.31
2023-01-15T04:20:47.010Z,98358.22
2023-01-15T04:23:14.578Z,98358.13
2023-01-15T04:25:41.784Z,98347.72
2023-01-15T04:28:09.729Z,98368.56
2023-01-15T04:30:37.057Z,98381.63
2023-01-15T04:33:04.663Z,98351.09
2023-01-15T04:35:31.866Z,98368.44
2023-01-15T04:37:59.779Z,98372.00
2023-01-15T04:40:46.856Z,98344.03
2023-01-15T04:43:32.893Z,98332.69
2023-01-15T04:46:00.363Z,98331.09
2023-01-15T04:48:27.663Z,98338.03
2023-01-15T04:50:55.224Z,98347.56
2023-01-15T04:53:22.445Z,98313.59
2023-01-15T04:55:49.331Z,98324.81
2023-01-15T04:58:16.552Z,98330.09
2023-01-15T05:00:43.518Z,98360.72
2023-01-15T05:03:10.929Z,98336.50
2023-01-15T05:05:37.840Z,98349.47
2023-01-15T05:08:05.133Z,98335.59
2023-01-15T05:10:32.119Z,98353.81
2023-01-15T05:12:59.340Z,98340.78
2023-01-15T05:15:26.290Z,98354.78
2023-01-15T05:17:53.423Z,98341.78
2023-01-15T05:20:20.423Z,98330.22
2023-01-15T05:22:47.554Z,98329.34
2023-01-15T05:25:14.456Z,98352.84
2023-01-15T05:27:42.771Z,98345.16
2023-01-15T05:30:10.429Z,98368.72
2023-01-15T05:32:37.677Z,98342.59
2023-01-15T05:35:04.811Z,98338.22
2023-01-15T05:37:31.973Z,98311.94
2023-01-15T05:39:58.887Z,98330.97
2023-01-15T05:42:26.268Z,98330.19
2023-01-15T05:44:53.184Z,98321.59
2023-01-15T05:47:20.388Z,98332.03
2023-01-15T05:49:48.622Z,98333.91
2023-01-15T05:52:16.240Z,98322.53
2023-01-15T05:54:43.130Z,98317.44
2023-01-15T05:57:13.118Z,98316.66
2023-01-15T05:59:40.484Z,98317.63
2023-01-15T06:02:07.786Z,98324.47
2023-01-15T06:04:34.734Z,98330.69
2023-01-15T06:07:02.051Z,98337.47
2023-01-15T06:09:29.811Z,98305.03
2023-01-15T06:11:57.803Z,98312.97
2023-01-15T06:14:25.392Z,98316.44
2023-01-15T06:16:52.743Z,98307.88
2023-01-15T06:19:20.020Z,98308.81
2023-01-15T06:21:47.207Z,98300.03
2023-01-15T06:24:16.640Z,98300.94
2023-01-15T06:26:43.994Z,98304.31
2023-01-15T06:29:10.898Z,98286.84
2023-01-15T06:31:38.215Z,98293.78
2023-01-15T06:34:05.245Z,98288.59
2023-01-15T06:36:32.517Z,98273.72
2023-01-15T06:38:59.404Z,98294.56
2023-01-15T06:41:45.446Z,98254.53
2023-01-15T06:44:34.432Z,98296.19
2023-01-15T06:47:23.039Z,98277.91
2023-01-15T06:49:56.005Z,98288.13
2023-01-15T06:52:25.148Z,98278.38
2023-01-15T06:54:52.676Z,98288.72
2023-01-15T06:57:19.971Z,98251.94
2023-01-15T06:59:48.118Z,98291.84
2023-01-15T07:02:15.446Z,98264.25
2023-01-15T07:04:42.476Z,98264.97
2023-01-15T07:07:09.733Z,98285.13
2023-01-15T07:09:37.336Z,98270.53
2023-01-15T07:12:04.562Z,98246.13
2023-01-15T07:14:32.242Z,98289.78
2023-01-15T07:16:59.450Z,98263.88
2023-01-15T07:19:27.429Z,98255.59
2023-01-15T07:21:54.844Z,98259.00
2023-01-15T07:24:22.501Z,98281.25
2023-01-15T07:26:49.869Z,98252.31
2023-01-15T07:29:16.846Z,98262.22
2023-01-15T07:31:44.455Z,98252.63
2023-01-15T07:34:11.414Z,98249.06
2023-01-15T07:36:38.997Z,98237.81
2023-01-15T07:39:07.422Z,98285.13
2023-01-15T07:41:53.136Z,98244.50
2023-01-15T07:44:38.886Z,98253.56
2023-01-15T07:47:37.817Z,98264.28
2023-01-15T07:50:08.048Z,98272.41
2023-01-15T07:52:35.517Z,98262.50
2023-01-15T07:55:03.960Z,98282.47
2023-01-15T07:57:31.452Z,98267.03
2023-01-15T07:59:58.324Z,98246.84
2023-01-15T08:02:25.508Z,98269.28
2023-01-15T08:04:52.462Z,98230.78
2023-01-15T08:07:19.626Z,98230.75
2023-01-15T08:09:46.581Z,98251.75
2023-01-15T08:12:32.293Z,98227.34
2023-01-15T08:15:14.397Z,98217.88
2023-01-15T08:17:44.254Z,98221.88
2023-01-15T08:20:19.974Z,98226.97
2023-01-15T08:22:47.761Z,98239.16
2023-01-15T08:25:19.095Z,98224.44
2023-01-15T08:27:47.077Z,98213.06
2023-01-15T08:30:17.552Z,98236.66
2023-01-15T08:32:45.386Z,98214.94
2023-01-15T08:35:13.265Z,98226.25
2023-01-15T08:37:41.772Z,98248.78
2023-01-15T08:40:10.963Z,98213.03
2023-01-15T08:42:38.595Z,98234.91
2023-01-15T08:45:06.103Z,98198.28
2023-01-15T08:47:33.445Z,98217.47
2023-01-15T08:50:00.440Z,98215.78
2023-01-15T08:52:27.734Z,98207.00
2023-01-15T08:54:54.694Z,98231.41
2023-01-15T08:57:21.921Z,98214.19
2023-01-15T08:59:48.830Z,98222.00
2023-01-15T09:02:16.371Z,98228.19
2023-01-15T09:04:43.394Z,98274.44
2023-01-15T09:07:11.210Z,98235.16
2023-01-15T09:09:38.171Z,98271.81
2023-01-15T09:12:05.489Z,98181.19
2023-01-15T09:14:58.928Z,98202.75
2023-01-15T09:17:19.541Z,98162.63
2023-01-15T09:19:46.635Z,98185.34
2023-01-15T09:22:13.965Z,98194.13
2023-01-15T09:24:40.880Z,98194.84
2023-01-15T09:27:12.962Z,98173.03
2023-01-15T09:29:40.237Z,98176.50
2023-01-15T09:32:08.362Z,98170.47
2023-01-15T09:34:35.220Z,98184.34
2023-01-15T09:37:02.462Z,98220.84
2023-01-15T09:39:29.370Z,98137.22
2023-01-15T09:42:29.002Z,98138.78
2023-01-15T09:44:58.633Z,98184.81
2023-01-15T09:47:38.723Z,98115.03
2023-01-15T09:50:14.685Z,98126.34
2023-01-15T09:52:50.696Z,98101.59
2023-01-15T09:55:21.369Z,98122.50
2023-01-15T09:57:55.562Z,98103.22
2023-01-15T10:00:26.488Z,98108.25
2023-01-15T10:02:59.116Z,98090.78
2023-01-15T10:05:33.896Z,98109.19
2023-01-15T10:08:07.048Z,98094.47
2023-01-15T10:10:45.894Z,98116.81
2023-01-15T10:13:33.202Z,98067.03
2023-01-15T10:16:00.653Z,98093.13
2023-01-15T10:18:29.058Z,98113.38
2023-01-15T10:21:03.338Z,98048.94
2023-01-15T10:23:52.968Z,98067.53
2023-01-15T10:26:33.395Z,98102.44
2023-01-15T10:29:24.915Z,98018.50
2023-01-15T10:32:10.119Z,97943.22
2023-01-15T10:34:50.212Z,98012.31
2023-01-15T10:37:35.149Z,98046.06
2023-01-15T10:40:30.064Z,97996.28
2023-01-15T10:43:15.639Z,98002.16
2023-01-15T10:45:54.299Z,98016.88
2023-01-15T10:48:42.833Z,97997.97
2023-01-15T10:51:20.800Z,98076.72
2023-01-15T10:53:57.183Z,98000.06
2023-01-15T10:56:41.187Z,98036.16
2023-01-15T10:59:18.240Z,97986.34
2023-01-15T11:01:46.461Z,97990.59
2023-01-15T11:04:14.034Z,97980.94
2023-01-15T11:06:42.206Z,97948.88
2023-01-15T11:09:34.806Z,97954.28
2023-01-15T11:13:00.855Z,97957.00
2023-01-15T11:15:46.856Z,97930.91
2023-01-15T11:18:39.826Z,97964.16
2023-01-15T11:21:13.476Z,97958.09
2023-01-15T11:23:41.024Z,97958.78
2023-01-15T11:26:08.165Z,97948.31
2023-01-15T11:28:41.518Z,97992.78
2023-01-15T11:31:10.040Z,98018.13
2023-01-15T11:33:38.391Z,97950.22
2023-01-15T11:36:08.431Z,97947.63
2023-01-15T11:38:46.762Z,97906.66
2023-01-15T11:41:55.446Z,97947.94
2023-01-15T11:44:42.161Z,97960.38
2023-01-15T11:47:32.092Z,97949.97
2023-01-15T11:50:17.871Z,97934.47
2023-01-15T11:52:55.811Z,97952.09
2023-01-15T11:55:26.535Z,97990.44
2023-01-15T11:57:55.120Z,97949.34
2023-01-15T12:00:32.736Z,97952.66
2023-01-15T12:03:05.248Z,97939.66
2023-01-15T12:05:35.331Z,97936.31
2023-01-15T12:08:22.424Z,97924.78
2023-01-15T12:11:17.494Z,97954.09
2023-01-15T12:13:58.433Z,97910.16
2023-01-15T12:17:01.064Z,97908.59
2023-01-15T12:19:28.176Z,97878.28
2023-01-15T12:21:55.498Z,97899.22
2023-01-15T12:24:52.597Z,97852.97
2023-01-15T12:27:52.524Z,97923.84
2023-01-15T12:30:42.187Z,97904.69
2023-01-15T12:33:53.871Z,97889.69
2023-01-15T12:36:44.779Z,97904.97
2023-01-15T12:39:35.263Z,97892.78
2023-01-15T12:42:26.139Z,97903.31
2023-01-15T12:45:06.081Z,97907.00
2023-01-15T12:47:52.362Z,97886.19
2023-01-15T12:50:50.699Z,97896.75
2023-01-15T12:53:21.113Z,97916.03
2023-01-15T12:55:49.042Z,97887.25
2023-01-15T12:58:47.876Z,97876.28
2023-01-15T13:01:32.138Z,97887.66
2023-01-15T13:04:12.727Z,97868.50
2023-01-15T13:06:44.962Z,97880.72
2023-01-15T13:09:18.888Z,97865.16
2023-01-15T13:11:46.151Z,97890.47
2023-01-15T13:14:17.484Z,97900.81
2023-01-15T13:17:08.627Z,97889.38
2023-01-15T13:19:39.408Z,97889.41
2023-01-15T13:22:14.917Z,97908.72
2023-01-15T13:24:57.200Z,97917.28
2023-01-15T13:27:43.517Z,97894.81
2023-01-15T13:30:32.058Z,97908.00
2023-01-15T13:33:30.256Z,97950.84
2023-01-15T13:36:06.433Z,97909.97
2023-01-15T13:38:43.291Z,97900.56
2023-01-15T13:41:10.742Z,97932.19
2023-01-15T13:43:43.849Z,97935.09
2023-01-15T13:46:19.430Z,97878.53
2023-01-15T13:48:52.510Z,97923.91
2023-01-15T13:51:33.171Z,97907.63
2023-01-15T13:54:01.628Z,97927.84
2023-01-15T13:56:36.182Z,97941.75
2023-01-15T13:59:05.559Z,97904.41
2023-01-15T14:01:37.366Z,97957.63
2023-01-15T14:04:13.643Z,97910.75
2023-01-15T14:06:44.710Z,97919.88
2023-01-15T14:09:29.628Z,97913.81
2023-01-15T14:12:05.204Z,97935.63
2023-01-15T14:14:38.252Z,97866.25
2023-01-15T14:17:35.529Z,97916.25
2023-01-15T14:20:21.514Z,97924.09
2023-01-15T14:22:58.031Z,97911.03
2023-01-15T14:25:28.236Z,97962.50
2023-01-15T14:27:58.086Z,97919.28
2023-01-15T14:31:02.527Z,97925.53
2023-01-15T14:34:04.953Z,97929.22
2023-01-15T14:37:00.197Z,97930.09
2023-01-15T14:39:49.521Z,97913.81
2023-01-15T14:42:41.527Z,97900.66
2023-01-15T14:45:11.442Z,97926.03
2023-01-15T14:47:49.610Z,97923.59
2023-01-15T14:50:38.567Z,97922.69
2023-01-15T14:53:05.796Z,97890.34
2023-01-15T14:55:33.523Z,97905.31
2023-01-15T14:58:05.702Z,97909.75
2023-01-15T15:00:40.051Z,97884.59
2023-01-15T15:03:18.087Z,97916.06
2023-01-15T15:05:46.688Z,97889.16
2023-01-15T15:08:16.282Z,97893.47
2023-01-15T15:10:45.123Z,97908.16
2023-01-15T15:13:44.510Z,97897.06
2023-01-15T15:16:19.750Z,97911.13
2023-01-15T15:19:01.672Z,97912.81
2023-01-15T15:21:37.474Z,97905.91
2023-01-15T15:24:21.377Z,97897.91
2023-01-15T15:26:48.363Z,97909.94
2023-01-15T15:29:18.722Z,97889.94
2023-01-15T15:31:58.311Z,97877.75
2023-01-15T15:34:32.991Z,97886.25
2023-01-15T15:37:05.403Z,97880.03
2023-01-15T15:53:36.502Z,97856.41
2023-01-15T15:56:03.955Z,97895.00
2023-01-15T15:58:36.132Z,97855.25
2023-01-15T16:01:03.685Z,97852.88
2023-01-15T16:03:33.283Z,97872.34
2023-01-15T16:06:06.285Z,97887.13
2023-01-15T16:08:35.258Z,97889.94
2023-01-15T16:11:04.474Z,97857.88
2023-01-15T16:13:36.650Z,97860.53
2023-01-15T16:16:05.757Z,97857.28
2023-01-15T16:18:36.474Z,97853.06
2023-01-15T16:21:04.131Z,97853.56
2023-01-15T16:23:31.362Z,97857.50
2023-01-15T16:26:08.344Z,97858.72
2023-01-15T16:28:43.741Z,97858.09
2023-01-15T16:31:12.449Z,97856.41
2023-01-15T16:33:39.696Z,97851.19
2023-01-15T16:36:08.082Z,97859.81
2023-01-15T16:38:39.089Z,97842.44
2023-01-15T16:41:07.025Z,97863.13
2023-01-15T16:43:51.621Z,97838.84
2023-01-15T16:46:20.465Z,97833.56
2023-01-15T16:48:48.676Z,97855.19
2023-01-15T16:51:33.354Z,97830.97
2023-01-15T16:54:05.994Z,97864.09
2023-01-15T16:56:36.215Z,97848.41
2023-01-15T16:59:15.834Z,97822.25
2023-01-15T17:01:48.795Z,97888.34
2023-01-15T17:04:27.755Z,97844.94
2023-01-15T17:06:59.431Z,97828.59
2023-01-15T17:09:28.306Z,97839.28
2023-01-15T17:11:56.315Z,97848.94
2023-01-15T17:14:29.931Z,97832.53
2023-01-15T17:17:15.044Z,97823.22
2023-01-15T17:19:41.979Z,97814.66
2023-01-15T17:22:20.511Z,97813.94
2023-01-15T17:24:52.609Z,97820.13
2023-01-15T17:27:20.173Z,97821.06
2023-01-15T17:29:47.178Z,97807.19
2023-01-15T17:32:18.182Z,97835.03
2023-01-15T17:34:45.084Z,97817.75
2023-01-15T17:37:12.296Z,97818.59
2023-01-15T17:39:39.268Z,97827.38
2023-01-15T17:42:18.452Z,97815.13
2023-01-15T17:44:46.057Z,97809.78
2023-01-15T17:47:13.386Z,97827.16
2023-01-15T17:49:40.341Z,97840.25
2023-01-15T17:52:14.598Z,97834.13
2023-01-15T17:55:00.111Z,97822.00
2023-01-15T17:57:45.820Z,97835.78
2023-01-15T18:00:32.079Z,97850.56
2023-01-15T18:03:18.644Z,97827.84
2023-01-15T18:05:47.751Z,97844.47
2023-01-15T18:08:15.575Z,97853.88
2023-01-15T18:10:42.416Z,97832.94
2023-01-15T18:13:09.710Z,97854.72
2023-01-15T18:15:36.642Z,97836.56
2023-01-15T18:18:03.988Z,97856.72
2023-01-15T18:20:31.839Z,97831.50
2023-01-15T18:22:59.032Z,97815.19
2023-01-15T18:25:26.234Z,97829.03
2023-01-15T18:27:53.502Z,97843.84
2023-01-15T18:30:20.452Z,97829.16
2023-01-15T18:32:47.637Z,97837.25
2023-01-15T18:35:15.049Z,97854.72
2023-01-15T18:37:42.859Z,97852.19
2023-01-15T18:40:11.017Z,97849.63
2023-01-15T18:42:58.063Z,97827.16
2023-01-15T18:45:43.980Z,97832.53
2023-01-15T18:48:11.130Z,97807.44
2023-01-15T18:50:38.116Z,97825.81
2023-01-15T18:53:05.323Z,97838.94
2023-01-15T18:55:32.259Z,97841.63
2023-01-15T18:58:00.017Z,97839.84
2023-01-15T19:00:27.043Z,97836.41
2023-01-15T19:02:54.253Z,97841.75
2023-01-15T19:05:21.471Z,97845.16
2023-01-15T19:07:48.767Z,97842.47
2023-01-15T19:10:17.406Z,97839.78
2023-01-15T19:12:45.149Z,97835.44
2023-01-15T19:15:38.543Z,97838.03
2023-01-15T19:18:24.712Z,97832.84
2023-01-15T19:20:51.683Z,97840.66
2023-01-15T19:23:20.694Z,97838.84
2023-01-15T19:25:51.121Z,97834.41
2023-01-15T19:28:20.822Z,97839.63
2023-01-15T19:31:08.170Z,97858.78
2023-01-15T19:33:35.812Z,97846.66
2023-01-15T19:36:04.265Z,97848.34
2023-01-15T19:38:33.147Z,97849.31
2023-01-15T19:41:19.912Z,97852.56
2023-01-15T19:44:05.563Z,97859.59
2023-01-15T19:46:58.561Z,97864.03
2023-01-15T19:49:44.829Z,97872.59
2023-01-15T19:52:30.415Z,97876.88
2023-01-15T19:54:57.676Z,97885.53
2023-01-15T19:57:24.910Z,97886.50
2023-01-15T19:59:52.445Z,97895.19
2023-01-15T20:02:19.353Z,97892.53
2023-01-15T20:04:47.320Z,97884.81
2023-01-15T20:07:14.292Z,97895.09
2023-01-15T20:09:42.584Z,97898.69
2023-01-15T20:12:31.347Z,97891.88
2023-01-15T20:14:59.511Z,97906.72
2023-01-15T20:17:29.394Z,97905.94
2023-01-15T20:19:57.873Z,97913.72
2023-01-15T20:22:26.167Z,97934.47
2023-01-15T20:24:53.369Z,97931.97
2023-01-15T20:27:20.384Z,97936.19
2023-01-15T20:29:54.366Z,97933.78
2023-01-15T20:32:21.340Z,97953.84
2023-01-15T20:34:48.582Z,97953.84
2023-01-15T20:37:16.180Z,97948.72
2023-01-15T20:39:43.381Z,97946.97
2023-01-15T20:42:30.192Z,97953.03
2023-01-15T20:44:57.524Z,97959.16
2023-01-15T20:47:47.474Z,97957.44
2023-01-15T20:50:17.331Z,97963.81
2023-01-15T20:52:49.665Z,97970.78
2023-01-15T20:55:17.701Z,97973.41
2023-01-15T20:57:44.696Z,97972.44
2023-01-15T21:00:17.155Z,97975.13
2023-01-15T21:02:44.681Z,97976.84
2023-01-15T21:05:12.319Z,97985.59
2023-01-15T21:07:39.381Z,97986.53
2023-01-15T21:10:09.959Z,97977.97
2023-01-15T21:12:36.829Z,97987.44
2023-01-15T21:15:04.438Z,97979.72
2023-01-15T21:17:31.431Z,97980.56
2023-01-15T21:19:58.639Z,97981.53
2023-01-15T21:22:25.635Z,97972.06
2023-01-15T21:24:52.808Z,97979.97
2023-01-15T21:27:19.764Z,97978.31
2023-01-15T21:29:49.880Z,97973.16
2023-01-15T21:32:17.039Z,97973.03
2023-01-15T21:34:44.356Z,97971.41
2023-01-15T21:37:11.218Z,97973.19
2023-01-15T21:39:38.814Z,97988.94
2023-01-15T21:42:24.427Z,97977.72
2023-01-15T21:44:51.641Z,97987.44
2023-01-15T21:47:19.699Z,97980.50
2023-01-15T21:49:47.001Z,97984.84
2023-01-15T21:52:17.784Z,97987.56
2023-01-15T21:54:45.972Z,97991.06
2023-01-15T21:57:14.053Z,97994.38
2023-01-15T21:59:41.355Z,97997.00
2023-01-15T22:02:15.241Z,97992.69
2023-01-15T22:04:43.750Z,97987.53
2023-01-15T22:07:11.587Z,97988.31
2023-01-15T22:09:38.828Z,97996.25
2023-01-15T22:12:06.002Z,97997.91
2023-01-15T22:14:33.848Z,97986.63
2023-01-15T22:17:03.655Z,97987.47
2023-01-15T22:19:32.326Z,97998.78
2023-01-15T22:22:05.132Z,97998.06
2023-01-15T22:24:33.763Z,97987.66
2023-01-15T22:27:01.958Z,97984.28
2023-01-15T22:29:34.882Z,97980.81
2023-01-15T22:32:02.148Z,97982.50
2023-01-15T22:34:29.462Z,97985.22
2023-01-15T22:36:57.472Z,97991.34
2023-01-15T22:39:26.063Z,97988.72
2023-01-15T22:42:11.900Z,97987.00
2023-01-15T22:44:39.293Z,97981.84
2023-01-15T22:47:06.675Z,97979.38
2023-01-15T22:49:33.932Z,97979.38
2023-01-15T22:52:00.841Z,97973.31
2023-01-15T22:54:28.133Z,97975.88
2023-01-15T22:56:55.216Z,97975.84
2023-01-15T22:59:22.460Z,97974.94
2023-01-15T23:01:49.515Z,97972.47
2023-01-15T23:04:22.268Z,97986.19
2023-01-15T23:06:51.613Z,97985.38
2023-01-15T23:09:20.903Z,97987.16
2023-01-15T23:11:48.098Z,97974.97
2023-01-15T23:14:15.860Z,97976.72
2023-01-15T23:16:43.694Z,97969.75
2023-01-15T23:19:12.318Z,97967.97
2023-01-15T23:21:40.106Z,97970.63
2023-01-15T23:24:07.656Z,97977.66
2023-01-15T23:26:35.038Z,97968.03
2023-01-15T23:29:03.124Z,97963.75
2023-01-15T23:31:30.286Z,97959.41
2023-01-15T23:33:57.556Z,97952.47
2023-01-15T23:36:24.680Z,97959.44
2023-01-15T23:38:51.970Z,97953.41
2023-01-15T23:41:44.812Z,97957.72
2023-01-15T23:44:36.032Z,97963.00
2023-01-15T23:47:03.070Z,97961.22
2023-01-15T23:49:30.390Z,97964.69
2023-01-15T23:51:57.840Z,97957.78
2023-01-15T23:54:30.187Z,97957.72
2023-01-15T23:56:59.088Z,97968.16
2023-01-15T23:59:26.241Z,97960.47
